»·PEaware :: N4987R L71-KTRM

N4987R :: L71-KTRM

FLIGHT INFORMATION

Flight Status: Arrived
Operator: Privately registered:
United States
More flights under this callsign
Pilot: Jonathan F. (6622)
Aircraft: CESSNA 172 SKYHAWK
(C172)
More flights by this aircraft type
Origin: L71 California City Mun
United States
Destination: KTRM Desert Resorts Regl
United States
More flights between these airports :: More routes between these airports
Route: +L71 PMD V137 TRM KTRM
File this flight plan on PilotEdge
Remarks:
Altitude:
(Current/Filed)
13,000ft
Speed:
(Current/Filed)
110kts
Departed: 17-Apr-15 12:59 PM
Arrived: 17-Apr-15 02:14 PM
Distance/Time
Traveled:
129nm/1:15
Distance/Time
To Go:
Arrived

Flight Plot

Page will automatically refresh every two minutes.


Map Options




Map Legend


Flown Route
Filed Route
Departure Airport
Arrival Airport
Navaid (VOR, NDB)
Fix

Horizontal Profiles

Position Reports

Time Latitude Longitude Heading Altitude Ground
Speed
17-Apr-15 12:46 35.151650 -118.010900 329 2457ft 0kts
17-Apr-15 12:47 35.151650 -118.010900 329 2457ft 0kts
17-Apr-15 12:48 35.151654 -118.010903 329 2457ft 0kts
17-Apr-15 12:49 35.151659 -118.010907 329 2457ft 0kts
17-Apr-15 12:50 35.151663 -118.010910 329 2457ft 0kts
17-Apr-15 12:51 35.151668 -118.010913 329 2457ft 0kts
17-Apr-15 12:52 35.152024 -118.010535 77 2457ft 11kts
17-Apr-15 12:53 35.152908 -118.006926 19 2457ft 0kts
17-Apr-15 12:54 35.152915 -118.006923 19 2457ft 0kts
17-Apr-15 12:55 35.152921 -118.006921 19 2457ft 0kts
17-Apr-15 12:56 35.152985 -118.006914 347 2457ft 3kts
17-Apr-15 12:57 35.150694 -118.019231 254 2589ft 84kts
17-Apr-15 12:58 35.149657 -118.024692 251 2715ft 88kts
17-Apr-15 12:59 35.134682 -118.038395 173 3547ft 88kts
17-Apr-15 13:00 35.111967 -118.030991 159 4523ft 85kts
17-Apr-15 13:01 35.088459 -118.026095 173 5273ft 89kts
17-Apr-15 13:02 35.063463 -118.020780 178 6092ft 94kts
17-Apr-15 13:03 35.059690 -118.020868 178 6207ft 93kts
17-Apr-15 13:04 35.059152 -118.020878 178 6216ft 94kts
17-Apr-15 13:05 35.042692 -118.021364 186 5204ft 186kts
17-Apr-15 13:06 35.009492 -118.030286 192 5735ft 102kts
17-Apr-15 13:07 34.982600 -118.030093 161 6967ft 92kts
17-Apr-15 13:08 34.956022 -118.029780 175 8001ft 86kts
17-Apr-15 13:09 34.930432 -118.025558 170 8707ft 105kts
17-Apr-15 13:10 34.903443 -118.022043 179 9794ft 92kts
17-Apr-15 13:11 34.876775 -118.024930 185 10559ft 93kts
17-Apr-15 13:12 34.850463 -118.032222 189 11142ft 94kts
17-Apr-15 13:13 34.821842 -118.034305 178 11825ft 109kts
17-Apr-15 13:14 34.791557 -118.034880 189 12815ft 93kts
17-Apr-15 13:15 34.759613 -118.044119 203 12870ft 134kts
17-Apr-15 13:16 34.725832 -118.059207 208 12863ft 135kts
17-Apr-15 13:17 34.696776 -118.078643 221 12741ft 89kts
17-Apr-15 13:18 34.667451 -118.065403 148 12932ft 136kts
17-Apr-15 13:19 34.630555 -118.059455 178 12944ft 142kts
17-Apr-15 13:20 34.600774 -118.032226 119 13038ft 145kts
17-Apr-15 13:21 34.579736 -117.989457 114 12981ft 137kts
17-Apr-15 13:22 34.564619 -117.950042 101 12993ft 126kts
17-Apr-15 13:23 34.555131 -117.909258 91 13063ft 123kts
17-Apr-15 13:24 34.549776 -117.866961 85 13098ft 124kts
17-Apr-15 13:25 34.536496 -117.826009 107 13069ft 131kts
17-Apr-15 13:26 34.536568 -117.787784 106 13062ft 130kts
17-Apr-15 13:27 34.509349 -117.755160 121 13062ft 140kts
17-Apr-15 13:28 34.486084 -117.717545 119 13000ft 135kts
17-Apr-15 13:29 34.462013 -117.683246 124 12998ft 132kts
17-Apr-15 13:30 34.441166 -117.648546 111 13005ft 119kts
17-Apr-15 13:31 34.427203 -117.618944 111 12989ft 127kts
17-Apr-15 13:32 34.405872 -117.572428 111 12987ft 140kts
17-Apr-15 13:33 34.390413 -117.538177 111 12981ft 135kts
17-Apr-15 13:34 34.372415 -117.498477 110 12971ft 137kts
17-Apr-15 13:35 34.354143 -117.457625 111 12985ft 129kts
17-Apr-15 13:36 34.336238 -117.417529 110 12963ft 141kts
17-Apr-15 13:37 34.317555 -117.374738 110 12958ft 144kts
17-Apr-15 13:38 34.298294 -117.331377 113 12945ft 154kts
17-Apr-15 13:39 34.276622 -117.285813 115 12915ft 158kts
17-Apr-15 13:40 34.255010 -117.243258 114 12961ft 136kts
17-Apr-15 13:41 34.236162 -117.204551 112 12962ft 132kts
17-Apr-15 13:42 34.217739 -117.166376 112 12961ft 130kts
17-Apr-15 13:43 34.199769 -117.128688 112 12967ft 128kts
17-Apr-15 13:44 34.181667 -117.091100 112 12980ft 129kts
17-Apr-15 13:45 34.163846 -117.053786 112 13003ft 127kts
17-Apr-15 13:46 34.146130 -117.016588 111 13022ft 128kts
17-Apr-15 13:47 34.128476 -116.979076 112 13038ft 129kts
17-Apr-15 13:48 34.110872 -116.941268 111 13054ft 129kts
17-Apr-15 13:49 34.093266 -116.903160 111 13045ft 130kts
17-Apr-15 13:50 34.075701 -116.864749 112 13044ft 130kts
17-Apr-15 13:51 34.058347 -116.826633 111 13063ft 128kts
17-Apr-15 13:52 34.041002 -116.788349 111 13050ft 130kts
17-Apr-15 13:53 34.023603 -116.749473 111 13004ft 133kts
17-Apr-15 13:54 34.005136 -116.704853 111 11727ft 156kts
17-Apr-15 13:55 33.986571 -116.656960 116 10227ft 160kts
17-Apr-15 13:56 33.964426 -116.610490 118 8751ft 159kts
17-Apr-15 13:57 33.941420 -116.565889 121 7453ft 156kts
17-Apr-15 13:58 33.917768 -116.524128 124 6143ft 143kts
17-Apr-15 13:59 33.894450 -116.485287 123 4834ft 142kts
17-Apr-15 14:00 33.870766 -116.445363 123 3760ft 150kts
17-Apr-15 14:01 33.848685 -116.408389 123 3666ft 138kts
17-Apr-15 14:02 33.825328 -116.368925 123 2980ft 152kts
17-Apr-15 14:03 33.801105 -116.330371 146 2402ft 129kts
17-Apr-15 14:04 33.771005 -116.322048 140 1498ft 103kts
17-Apr-15 14:05 33.755452 -116.296658 131 1089ft 96kts
17-Apr-15 14:06 33.734938 -116.274215 151 1291ft 98kts
17-Apr-15 14:07 33.711389 -116.259299 158 1287ft 109kts
17-Apr-15 14:08 33.685995 -116.237072 132 1250ft 102kts
17-Apr-15 14:09 33.668414 -116.215334 134 1049ft 83kts
17-Apr-15 14:10 33.651929 -116.196779 133 644ft 75kts
17-Apr-15 14:11 33.636508 -116.178424 132 176ft 79kts
17-Apr-15 14:12 33.625564 -116.165411 136 -110ft 23kts
17-Apr-15 14:13 33.621059 -116.160040 130 -110ft 20kts
17-Apr-15 14:14 33.624759 -116.158404 1 -110ft 27kts
17-Apr-15 14:15 33.631790 -116.158392 0 -110ft 22kts
17-Apr-15 14:16 33.634695 -116.159738 253 -110ft 7kts
17-Apr-15 14:17 33.634986 -116.161857 251 -110ft 0kts
17-Apr-15 14:18 33.634986 -116.161857 251 -110ft 0kts
17-Apr-15 14:19 33.634986 -116.161857 251 -110ft 0kts
17-Apr-15 14:20 33.634986 -116.161857 251 -110ft 0kts
17-Apr-15 14:21 33.634986 -116.161857 251 -110ft 0kts
17-Apr-15 14:22 33.634986 -116.161857 251 -110ft 0kts
17-Apr-15 14:23 33.634986 -116.161857 251 -110ft 0kts
17-Apr-15 14:24 33.634986 -116.161857 251 -110ft 0kts
17-Apr-15 14:25 33.634986 -116.161857 251 -110ft 0kts
17-Apr-15 14:26 33.634986 -116.161857 251 -110ft 0kts

Navigation Log

Ident Type
Flight plan parsing failed, navigation log unavailable